Time;durP1;ratioP1;P1;durP2;ratioP2;P2;SDS_P1;SDS_P2;PMS_P1;PMS_P2;Temp;Humidity;BMP_temperature;BMP_pressure;BME280_temperature;BME280_humidity;BME280_pressure;Samples;Min_cycle;Max_cycle;Signal;HPM_P1;HPM_P2
2024/02/11 00:01:54;;;;;;;13.87;10.73;;;;;;;9.64;75.82;93425.66;5023821;28;20434;-67
2024/02/11 00:04:19;;;;;;;12.07;9.60;;;;;;;9.73;75.40;93414.34;5012655;28;20180;-68
2024/02/11 00:06:46;;;;;;;13.40;10.97;;;;;;;9.66;75.43;93408.84;5022676;28;20446;-69
2024/02/11 00:09:12;;;;;;;12.67;11.37;;;;;;;9.66;75.91;93413.22;5020819;28;20297;-68
2024/02/11 00:11:38;;;;;;;12.20;10.97;;;;;;;9.66;75.96;93413.22;5027085;28;20413;-69
2024/02/11 00:14:03;;;;;;;15.67;11.27;;;;;;;9.76;75.77;93419.31;5026848;28;20245;-69
2024/02/11 00:16:30;;;;;;;12.83;11.00;;;;;;;9.73;75.54;93419.56;5018652;28;20215;-69
2024/02/11 00:18:56;;;;;;;15.80;10.93;;;;;;;9.80;75.14;93425.09;5012132;28;20600;-69
2024/02/11 00:21:23;;;;;;;16.30;11.03;;;;;;;9.81;75.21;93427.59;5028852;28;20504;-69
2024/02/11 00:23:49;;;;;;;13.90;11.07;;;;;;;9.79;75.22;93436.56;5029264;28;20429;-67
2024/02/11 00:26:16;;;;;;;15.40;10.47;;;;;;;9.79;75.07;93433.94;5029221;28;20797;-68
2024/02/11 00:28:41;;;;;;;12.20;10.80;;;;;;;9.61;75.83;93431.13;5028986;28;20585;-69
2024/02/11 00:31:07;;;;;;;10.70;8.83;;;;;;;9.70;75.50;93449.47;5027596;28;20417;-68
2024/02/11 00:33:32;;;;;;;12.13;10.30;;;;;;;9.70;75.32;93438.19;5028576;28;20172;-67
2024/02/11 00:35:59;;;;;;;12.20;9.90;;;;;;;9.68;75.54;93434.88;5028671;28;20199;-70
2024/02/11 00:38:26;;;;;;;12.93;10.67;;;;;;;9.67;75.73;93441.06;5028989;28;20179;-66
2024/02/11 00:40:51;;;;;;;11.40;10.20;;;;;;;9.63;75.80;93440.50;5028467;28;20414;-67
2024/02/11 00:43:16;;;;;;;14.30;12.83;;;;;;;9.71;75.59;93439.84;5028029;28;20920;-68
2024/02/11 00:45:42;;;;;;;15.50;11.27;;;;;;;9.62;75.56;93454.56;5028108;28;20228;-69
2024/02/11 00:48:07;;;;;;;14.97;12.07;;;;;;;9.62;75.83;93462.44;5021873;28;20595;-68
2024/02/11 00:50:34;;;;;;;13.90;11.03;;;;;;;9.66;75.64;93450.72;5026128;28;20180;-67
2024/02/11 00:53:05;;;;;;;13.83;12.43;;;;;;;9.68;75.72;93450.56;5027872;28;20229;-69
2024/02/11 00:55:33;;;;;;;14.07;11.60;;;;;;;9.69;75.69;93452.25;5020495;28;21193;-68
2024/02/11 00:58:00;;;;;;;15.50;12.10;;;;;;;9.72;75.56;93455.41;5020161;28;20447;-71
2024/02/11 01:00:25;;;;;;;12.20;10.90;;;;;;;9.61;76.04;93452.06;5027091;28;20509;-68
2024/02/11 01:02:51;;;;;;;15.90;11.33;;;;;;;9.73;75.85;93457.09;5028727;28;20997;-67
2024/02/11 01:05:19;;;;;;;13.17;11.70;;;;;;;9.77;75.37;93462.03;5020179;28;20202;-68
2024/02/11 01:07:44;;;;;;;15.97;10.60;;;;;;;9.64;75.59;93457.06;5023874;28;20204;-67
2024/02/11 01:10:11;;;;;;;12.30;10.63;;;;;;;9.65;75.63;93467.38;5021956;28;20461;-67
2024/02/11 01:12:41;;;;;;;14.40;13.00;;;;;;;9.63;76.04;93468.47;5021557;28;20674;-69
2024/02/11 01:15:08;;;;;;;13.33;10.50;;;;;;;9.69;75.56;93479.25;5025380;28;20446;-69
2024/02/11 01:17:34;;;;;;;15.33;12.57;;;;;;;9.61;75.78;93484.31;5022730;28;21109;-69
2024/02/11 01:19:59;;;;;;;13.23;11.87;;;;;;;9.56;76.15;93486.50;5018354;28;20476;-68
2024/02/11 01:22:24;;;;;;;14.60;12.13;;;;;;;9.54;76.30;93489.28;5018404;28;20505;-67
2024/02/11 01:24:50;;;;;;;12.30;11.00;;;;;;;9.59;76.11;93490.66;5020142;28;20187;-68
2024/02/11 01:27:15;;;;;;;12.27;11.10;;;;;;;9.56;76.06;93489.13;5022273;28;20203;-69
2024/02/11 01:29:41;;;;;;;12.90;11.17;;;;;;;9.52;76.61;93496.44;5018460;28;20195;-68
2024/02/11 01:32:07;;;;;;;11.73;10.50;;;;;;;9.53;76.58;93498.06;5024026;28;20262;-68
2024/02/11 01:34:32;;;;;;;13.17;11.77;;;;;;;9.47;76.80;93497.78;5022192;28;20732;-69
2024/02/11 01:37:00;;;;;;;14.77;12.27;;;;;;;9.62;76.46;93491.22;5013199;28;20624;-69
2024/02/11 01:39:25;;;;;;;12.77;10.40;;;;;;;9.56;76.38;93493.53;5014868;28;20187;-68
2024/02/11 01:41:50;;;;;;;13.90;10.67;;;;;;;9.54;76.70;93504.13;5020141;28;20447;-67
2024/02/11 01:44:16;;;;;;;12.33;11.03;;;;;;;9.56;76.54;93506.63;5014431;28;20609;-68
2024/02/11 01:46:42;;;;;;;12.87;10.73;;;;;;;9.57;75.86;93508.28;5023433;28;20214;-66
2024/02/11 01:49:10;;;;;;;12.70;10.23;;;;;;;9.59;76.42;93501.13;5017140;28;20196;-69
2024/02/11 01:51:42;;;;;;;13.40;10.10;;;;;;;9.51;76.49;93507.84;5019140;28;21205;-68
2024/02/11 01:54:09;;;;;;;12.10;10.30;;;;;;;9.52;76.33;93512.13;5017520;28;20449;-67
2024/02/11 01:56:36;;;;;;;12.40;11.17;;;;;;;9.57;76.07;93516.13;5018594;28;20959;-67
2024/02/11 01:59:02;;;;;;;11.67;10.47;;;;;;;9.44;76.70;93517.19;5023625;28;20443;-68
2024/02/11 02:01:29;;;;;;;10.87;9.30;;;;;;;9.39;76.72;93515.94;5017545;28;20876;-68
2024/02/11 02:03:55;;;;;;;11.33;10.00;;;;;;;9.51;76.80;93514.88;5015800;28;20500;-68
2024/02/11 02:06:22;;;;;;;15.03;11.00;;;;;;;9.49;76.83;93522.03;5016170;28;20466;-69
2024/02/11 02:08:47;;;;;;;13.77;10.63;;;;;;;9.54;76.48;93525.94;5010465;28;20199;-74
2024/02/11 02:11:13;;;;;;;14.63;11.50;;;;;;;9.48;76.86;93515.97;5024199;28;20979;-68
2024/02/11 02:13:39;;;;;;;11.77;10.53;;;;;;;9.48;77.07;93518.59;5022155;28;20186;-67
2024/02/11 02:16:08;;;;;;;15.03;11.17;;;;;;;9.42;77.45;93524.34;5020718;28;20761;-68
2024/02/11 02:18:34;;;;;;;15.00;9.77;;;;;;;9.43;77.25;93518.16;5022756;28;20650;-67
2024/02/11 02:21:06;;;;;;;13.00;9.93;;;;;;;9.50;77.27;93521.91;5011124;28;20949;-67
2024/02/11 02:23:32;;;;;;;14.27;10.23;;;;;;;9.53;77.20;93513.78;5022144;28;20442;-69
2024/02/11 02:26:00;;;;;;;13.00;11.70;;;;;;;9.49;77.53;93511.56;5016894;28;20450;-67
2024/02/11 02:28:26;;;;;;;15.23;11.70;;;;;;;9.50;77.56;93519.28;5019359;28;20187;-68
2024/02/11 02:30:51;;;;;;;13.83;10.77;;;;;;;9.44;77.82;93524.22;5018603;28;20502;-66
2024/02/11 02:33:16;;;;;;;11.30;10.20;;;;;;;9.43;78.09;93519.94;5010654;28;20188;-67
2024/02/11 02:35:42;;;;;;;11.10;9.80;;;;;;;9.48;78.09;93515.16;5010836;28;20205;-67
2024/02/11 02:38:07;;;;;;;13.90;10.90;;;;;;;9.39;78.61;93513.31;5016030;28;20598;-67
2024/02/11 02:40:33;;;;;;;12.37;10.53;;;;;;;9.44;78.73;93514.56;5020731;28;20188;-69
2024/02/11 02:42:59;;;;;;;12.40;10.20;;;;;;;9.48;78.08;93515.97;5021963;28;20221;-66
2024/02/11 02:45:25;;;;;;;12.40;10.57;;;;;;;9.46;78.74;93517.06;5006201;28;20245;-69
2024/02/11 02:47:53;;;;;;;11.27;10.20;;;;;;;9.47;78.35;93519.56;5010837;28;20455;-67
2024/02/11 02:50:20;;;;;;;12.53;11.23;;;;;;;9.54;78.15;93522.47;5018829;28;20179;-70
2024/02/11 02:52:46;;;;;;;11.77;9.67;;;;;;;9.57;78.14;93518.75;5017012;28;20933;-68
2024/02/11 02:55:12;;;;;;;11.13;10.00;;;;;;;9.49;78.61;93522.03;5017068;28;20906;-68
2024/02/11 02:57:37;;;;;;;11.43;9.33;;;;;;;9.49;78.36;93524.66;5010852;28;20571;-68
2024/02/11 03:00:06;;;;;;;11.23;9.80;;;;;;;9.49;78.87;93524.66;5021198;28;20187;-67
2024/02/11 03:02:32;;;;;;;11.67;9.97;;;;;;;9.54;78.59;93532.94;5012717;28;20560;-66
2024/02/11 03:04:58;;;;;;;11.40;10.10;;;;;;;9.52;78.67;93529.63;5020757;28;20433;-68
2024/02/11 03:07:24;;;;;;;12.40;10.17;;;;;;;9.50;78.94;93531.56;5019938;28;20481;-68
2024/02/11 03:09:49;;;;;;;14.47;10.80;;;;;;;9.54;79.09;93532.94;5016858;28;20271;-68
2024/02/11 03:12:14;;;;;;;12.43;10.10;;;;;;;9.43;79.42;93528.63;5012378;28;20183;-67
2024/02/11 03:14:40;;;;;;;12.13;10.83;;;;;;;9.41;79.73;93527.09;5015865;28;20188;-68
2024/02/11 03:17:05;;;;;;;11.13;9.90;;;;;;;9.47;79.31;93532.66;5017342;28;20208;-66
2024/02/11 03:19:31;;;;;;;13.10;10.63;;;;;;;9.48;79.38;93534.28;5014226;28;20207;-68
2024/02/11 03:21:57;;;;;;;12.77;11.37;;;;;;;9.49;79.63;93545.59;5021714;28;20211;-69
2024/02/11 03:24:22;;;;;;;14.30;11.30;;;;;;;9.36;80.00;93543.19;5020204;28;20539;-69
2024/02/11 03:26:47;;;;;;;16.03;12.70;;;;;;;9.35;80.37;93541.53;5014787;28;20195;-68
2024/02/11 03:29:13;;;;;;;14.27;12.03;;;;;;;9.35;80.64;93549.38;5022054;28;20184;-69
2024/02/11 03:31:38;;;;;;;13.33;12.03;;;;;;;9.32;80.77;93553.09;5014373;28;20976;-68
2024/02/11 03:34:06;;;;;;;12.87;11.53;;;;;;;9.37;80.76;93554.50;5010850;28;20790;-65
2024/02/11 03:36:32;;;;;;;12.77;11.47;;;;;;;9.32;80.97;93557.50;5022044;28;20216;-68
2024/02/11 03:38:58;;;;;;;15.57;12.40;;;;;;;9.27;81.22;93562.28;5016113;28;20438;-68
2024/02/11 03:41:23;;;;;;;15.43;13.33;;;;;;;9.27;82.04;93564.91;5014793;28;20956;-67
2024/02/11 03:43:49;;;;;;;14.27;12.73;;;;;;;9.34;81.88;93573.91;5011495;28;20192;-69
2024/02/11 03:46:14;;;;;;;14.93;13.03;;;;;;;9.47;80.85;93565.81;5017458;28;20207;-68
2024/02/11 03:48:41;;;;;;;15.57;13.17;;;;;;;9.52;80.90;93572.34;5021311;28;20270;-69
2024/02/11 03:51:07;;;;;;;17.03;13.80;;;;;;;9.40;81.55;93576.00;5014699;28;20376;-68
2024/02/11 03:53:36;;;;;;;14.60;12.97;;;;;;;9.44;81.58;93576.56;5004758;28;20505;-67
2024/02/11 03:56:06;;;;;;;14.00;9.20;;;;;;;9.61;79.97;93585.59;5007967;28;20479;-68
2024/02/11 03:58:35;;;;;;;10.63;8.70;;;;;;;9.40;80.23;93585.63;5011790;28;21001;-68
2024/02/11 04:01:00;;;;;;;8.83;7.37;;;;;;;9.36;79.65;93590.31;5011405;28;20438;-69
2024/02/11 04:03:26;;;;;;;9.67;5.63;;;;;;;9.41;79.02;93601.22;5014760;28;20570;-68
2024/02/11 04:05:55;;;;;;;4.50;4.10;;;;;;;9.37;78.21;93598.97;5022879;28;20211;-68
2024/02/11 04:08:21;;;;;;;3.50;3.20;;;;;;;9.28;78.32;93608.41;5007614;28;20203;-67
2024/02/11 04:10:52;;;;;;;3.00;2.50;;;;;;;9.16;78.71;93609.44;5017659;28;20526;-68
2024/02/11 04:13:23;;;;;;;2.47;2.27;;;;;;;9.01;79.06;93632.47;5018252;28;20438;-68
2024/02/11 04:15:51;;;;;;;2.30;2.10;;;;;;;9.08;78.87;93631.84;5017454;28;20434;-68
2024/02/11 04:18:21;;;;;;;2.37;2.17;;;;;;;9.00;78.60;93634.28;5013681;28;20467;-66
2024/02/11 04:20:46;;;;;;;1.73;1.63;;;;;;;8.95;78.59;93641.63;5007618;28;20530;-67
2024/02/11 04:23:14;;;;;;;2.03;1.50;;;;;;;9.00;77.67;93638.66;5013637;28;21121;-68
2024/02/11 04:25:41;;;;;;;2.23;2.03;;;;;;;8.99;77.91;93650.91;5021004;28;20184;-68
2024/02/11 04:28:10;;;;;;;1.97;1.30;;;;;;;9.04;77.15;93653.97;5020163;28;21001;-69
2024/02/11 04:30:37;;;;;;;1.97;1.70;;;;;;;8.88;77.59;93658.78;5022325;28;20568;-68
2024/02/11 04:33:03;;;;;;;1.40;1.20;;;;;;;8.82;77.75;93664.53;5024592;28;20849;-69
2024/02/11 04:35:30;;;;;;;1.80;1.67;;;;;;;8.94;76.41;93671.38;5011777;28;20446;-68
2024/02/11 04:37:56;;;;;;;1.20;1.10;;;;;;;8.80;77.03;93671.66;5015230;28;20532;-68
2024/02/11 04:40:24;;;;;;;2.37;1.43;;;;;;;8.88;76.51;93680.56;5021266;28;20984;-68
2024/02/11 04:42:54;;;;;;;1.70;1.60;;;;;;;8.74;76.79;93683.47;5013583;28;20476;-69
2024/02/11 04:45:24;;;;;;;1.60;1.20;;;;;;;8.61;76.20;93693.22;5022317;28;20438;-67
2024/02/11 04:47:59;;;;;;;1.70;1.60;;;;;;;8.69;75.87;93696.91;5007687;28;20565;-67
2024/02/11 04:50:29;;;;;;;1.40;1.30;;;;;;;8.46;77.07;93697.91;5022959;28;20438;-69
2024/02/11 04:52:56;;;;;;;4.30;1.20;;;;;;;8.53;76.11;93706.91;5013355;28;20986;-68
2024/02/11 04:55:38;;;;;;;1.50;1.33;;;;;;;8.45;76.61;93711.91;5019119;28;20444;-68
2024/02/11 04:58:06;;;;;;;1.93;1.30;;;;;;;8.42;75.69;93715.59;5016579;28;22210;-68
2024/02/11 05:00:33;;;;;;;1.70;1.40;;;;;;;8.28;75.64;93718.41;5022530;28;20435;-68
2024/02/11 05:03:03;;;;;;;1.83;1.47;;;;;;;8.35;75.52;93729.22;5009127;28;20438;-69
2024/02/11 05:05:31;;;;;;;1.73;1.63;;;;;;;8.21;75.16;93736.34;5012378;28;20913;-69
2024/02/11 05:07:57;;;;;;;1.53;1.43;;;;;;;8.22;74.35;93742.38;5017448;28;20525;-67
2024/02/11 05:10:24;;;;;;;2.03;1.83;;;;;;;8.15;75.17;93742.06;5023483;28;20442;-68
2024/02/11 05:12:50;;;;;;;2.20;1.67;;;;;;;8.14;74.11;93753.44;5024001;28;20438;-68
2024/02/11 05:15:23;;;;;;;2.03;1.83;;;;;;;8.04;75.08;93753.31;5017065;28;20818;-68
2024/02/11 05:17:49;;;;;;;2.30;2.10;;;;;;;7.99;74.96;93760.69;5014292;28;20222;-68
2024/02/11 05:20:21;;;;;;;1.93;1.73;;;;;;;8.09;74.13;93763.41;5013496;28;20435;-67
2024/02/11 05:22:47;;;;;;;2.50;2.30;;;;;;;7.96;75.22;93768.75;5017763;28;20192;-69
2024/02/11 05:25:19;;;;;;;2.10;1.90;;;;;;;7.94;74.52;93772.44;5021289;28;20782;-68
2024/02/11 05:27:56;;;;;;;2.87;2.23;;;;;;;7.97;74.26;93793.06;5019467;28;20458;-68
2024/02/11 05:30:23;;;;;;;2.17;1.97;;;;;;;7.96;74.98;93792.25;5015498;28;20812;-69
2024/02/11 05:32:50;;;;;;;2.33;2.10;;;;;;;7.94;75.15;93785.47;5015338;28;20468;-69
2024/02/11 05:35:17;;;;;;;1.90;1.80;;;;;;;7.91;74.34;93793.53;5018072;28;20449;-68
2024/02/11 05:37:46;;;;;;;1.87;1.77;;;;;;;7.91;73.91;93794.34;5021311;28;20504;-66
2024/02/11 05:40:12;;;;;;;2.17;1.97;;;;;;;7.79;74.59;93798.72;5019272;28;21228;-66
2024/02/11 05:42:39;;;;;;;1.23;1.10;;;;;;;7.91;72.24;93806.59;5018459;28;20518;-70
2024/02/11 05:45:05;;;;;;;1.00;0.80;;;;;;;7.96;71.55;93809.69;5015606;28;20451;-68
2024/02/11 05:47:32;;;;;;;1.20;0.90;;;;;;;7.96;72.13;93814.91;5030646;28;20458;-69
2024/02/11 05:49:57;;;;;;;4.90;1.00;;;;;;;7.95;73.10;93821.09;5023296;28;20519;-67
2024/02/11 05:52:23;;;;;;;0.90;0.70;;;;;;;7.82;72.66;93827.22;5037744;28;20463;-66
2024/02/11 05:54:48;;;;;;;1.10;0.60;;;;;;;7.86;72.76;93827.81;5017954;28;20628;-67
2024/02/11 05:57:14;;;;;;;1.00;0.77;;;;;;;7.81;72.33;93828.16;5016226;28;20212;-68
2024/02/11 05:59:40;;;;;;;1.10;0.80;;;;;;;7.89;71.50;93831.97;5016512;28;20662;-66
2024/02/11 06:02:06;;;;;;;1.00;0.70;;;;;;;7.92;71.46;93834.38;5021590;28;20184;-69
2024/02/11 06:04:31;;;;;;;2.40;0.70;;;;;;;8.01;70.17;93837.13;5014917;28;20449;-68
2024/02/11 06:06:57;;;;;;;2.97;0.70;;;;;;;7.80;70.25;93841.34;5019698;28;20202;-68
2024/02/11 06:09:24;;;;;;;2.20;0.77;;;;;;;7.79;70.25;93840.50;5023034;28;20639;-68
2024/02/11 06:11:49;;;;;;;0.90;0.70;;;;;;;7.70;70.60;93837.72;5010261;28;20259;-69
2024/02/11 06:14:14;;;;;;;1.00;0.70;;;;;;;7.68;71.32;93850.06;5017013;28;20498;-68
2024/02/11 06:16:40;;;;;;;0.93;0.70;;;;;;;7.59;70.63;93855.00;5017719;28;20246;-68
2024/02/11 06:19:06;;;;;;;4.87;1.20;;;;;;;7.67;70.76;93859.66;5021163;28;20184;-68
2024/02/11 06:21:32;;;;;;;4.10;1.27;;;;;;;7.72;71.40;93861.94;5021911;28;20651;-67
2024/02/11 06:23:57;;;;;;;1.83;0.70;;;;;;;7.62;70.20;93869.63;5017319;28;20441;-68
2024/02/11 06:26:23;;;;;;;2.90;1.40;;;;;;;7.63;71.10;93871.31;5017993;28;21025;-68
2024/02/11 06:28:48;;;;;;;1.97;0.80;;;;;;;7.73;71.36;93880.13;5016132;28;20567;-68
2024/02/11 06:31:13;;;;;;;1.17;0.73;;;;;;;7.68;70.74;93892.66;5017205;28;20194;-67
2024/02/11 06:33:40;;;;;;;2.47;1.10;;;;;;;7.71;72.13;93886.41;5016030;28;20232;-69
2024/02/11 06:36:06;;;;;;;2.83;1.40;;;;;;;7.59;72.71;93898.56;5018145;28;20214;-68
2024/02/11 06:38:32;;;;;;;2.07;1.70;;;;;;;7.70;72.17;93898.63;5019040;28;20437;-67
2024/02/11 06:40:57;;;;;;;2.73;2.53;;;;;;;7.62;72.94;93895.72;5009562;28;20187;-68
2024/02/11 06:43:24;;;;;;;2.40;2.20;;;;;;;7.55;72.78;93904.94;5009068;28;20442;-68
2024/02/11 06:45:50;;;;;;;2.40;2.20;;;;;;;7.47;72.58;93910.72;5010222;28;20176;-69
2024/02/11 06:48:16;;;;;;;2.93;2.70;;;;;;;7.39;72.99;93905.19;5011974;28;20419;-68
2024/02/11 06:50:41;;;;;;;2.57;2.37;;;;;;;7.44;72.42;93910.94;5015402;28;21092;-68
2024/02/11 06:53:08;;;;;;;2.40;2.20;;;;;;;7.33;72.90;93919.53;5024329;28;20285;-67
2024/02/11 06:55:37;;;;;;;2.17;1.97;;;;;;;7.35;72.77;93924.63;5006715;28;20182;-67
2024/02/11 06:58:02;;;;;;;2.33;2.10;;;;;;;7.29;72.68;93925.88;5008377;28;20514;-69
2024/02/11 07:00:28;;;;;;;2.10;1.93;;;;;;;7.42;72.30;93928.47;5019822;28;20483;-66
2024/02/11 07:02:55;;;;;;;2.13;1.73;;;;;;;7.21;72.43;93936.03;5015041;28;20183;-68
2024/02/11 07:05:21;;;;;;;3.20;2.17;;;;;;;7.25;73.36;93936.66;5011482;28;20434;-69
2024/02/11 07:07:46;;;;;;;2.63;2.43;;;;;;;7.31;73.31;93944.88;5018247;28;20453;-68
2024/02/11 07:10:13;;;;;;;3.50;1.90;;;;;;;7.20;72.89;93945.66;5012112;28;20237;-69
2024/02/11 07:12:39;;;;;;;2.93;2.13;;;;;;;7.18;72.85;93947.53;5014493;28;20195;-68
2024/02/11 07:15:05;;;;;;;2.30;2.07;;;;;;;7.14;73.54;93961.72;5014981;28;20427;-67
2024/02/11 07:17:32;;;;;;;5.10;2.03;;;;;;;7.43;72.41;93957.06;5016481;28;20462;-69
2024/02/11 07:19:58;;;;;;;2.50;2.30;;;;;;;7.21;73.11;93965.56;5012248;28;20449;-69
2024/02/11 07:22:25;;;;;;;3.00;2.40;;;;;;;7.24;72.87;93969.72;5014915;28;20931;-68
2024/02/11 07:24:51;;;;;;;3.27;2.70;;;;;;;7.29;72.74;93966.78;5019459;28;20635;-68
2024/02/11 07:27:16;;;;;;;2.70;2.50;;;;;;;7.26;73.69;93972.25;5011876;28;20450;-69
2024/02/11 07:29:42;;;;;;;3.70;2.73;;;;;;;7.29;72.51;93977.22;5012448;28;20267;-68
2024/02/11 07:32:08;;;;;;;2.20;2.00;;;;;;;7.17;73.04;93979.75;5017020;28;20263;-69
2024/02/11 07:34:33;;;;;;;2.37;2.17;;;;;;;7.27;72.39;93984.31;5020965;28;20449;-69
2024/02/11 07:37:02;;;;;;;2.47;2.27;;;;;;;7.28;72.41;93984.22;5016227;28;20204;-70
2024/02/11 07:39:28;;;;;;;5.03;3.13;;;;;;;7.26;73.12;93985.28;5008156;28;20192;-67
2024/02/11 07:41:53;;;;;;;3.03;2.77;;;;;;;7.22;73.11;93987.25;5012445;28;20455;-67
2024/02/11 07:44:19;;;;;;;3.43;2.50;;;;;;;7.20;73.51;93983.91;5016519;28;20180;-69
2024/02/11 07:46:44;;;;;;;2.33;2.13;;;;;;;7.29;72.41;93991.09;5019770;28;20199;-69
2024/02/11 07:49:13;;;;;;;2.10;1.83;;;;;;;7.12;73.15;93996.66;5011180;28;20343;-68
2024/02/11 07:51:44;;;;;;;2.20;1.83;;;;;;;7.17;73.56;93999.78;5006508;28;20439;-69
2024/02/11 07:54:12;;;;;;;3.20;2.00;;;;;;;7.33;72.70;93999.56;5018029;28;20466;-68
2024/02/11 07:56:43;;;;;;;3.33;2.23;;;;;;;7.28;72.31;94010.31;5019185;28;21146;-68
2024/02/11 07:59:11;;;;;;;3.70;2.50;;;;;;;7.31;72.75;94012.72;5021089;28;20437;-69
2024/02/11 08:01:37;;;;;;;2.80;2.60;;;;;;;7.55;72.58;94009.31;5022208;28;20871;-67
2024/02/11 08:04:03;;;;;;;4.03;2.30;;;;;;;7.41;72.66;94018.94;5017102;28;20426;-67
2024/02/11 08:06:29;;;;;;;1.97;1.80;;;;;;;7.37;73.10;94022.72;5023026;28;20256;-67
2024/02/11 08:08:54;;;;;;;2.83;2.63;;;;;;;7.25;73.63;94020.13;5028569;28;20410;-69
2024/02/11 08:11:20;;;;;;;7.50;3.17;;;;;;;7.26;73.78;94025.25;5029684;28;20234;-67
2024/02/11 08:13:46;;;;;;;4.67;2.67;;;;;;;7.39;73.47;94023.47;5028120;28;20183;-69
2024/02/11 08:16:12;;;;;;;2.30;2.10;;;;;;;7.35;73.39;94024.59;5020407;28;20466;-68
2024/02/11 08:18:38;;;;;;;2.63;2.10;;;;;;;7.45;73.36;94016.13;5020741;28;20180;-68
2024/02/11 08:21:09;;;;;;;2.80;2.33;;;;;;;7.27;73.31;94023.47;5019790;28;20422;-68
2024/02/11 08:23:34;;;;;;;4.53;3.43;;;;;;;7.55;73.69;94022.38;5028388;28;20458;-70
2024/02/11 08:26:00;;;;;;;4.13;2.40;;;;;;;7.45;73.00;94021.34;5011783;28;20492;-68
2024/02/11 08:28:26;;;;;;;3.13;2.93;;;;;;;7.43;73.60;94024.88;5017014;28;20188;-69
2024/02/11 08:30:51;;;;;;;3.80;3.07;;;;;;;7.55;73.55;94028.41;5009143;28;20434;-67
2024/02/11 08:33:16;;;;;;;3.10;2.90;;;;;;;7.57;73.27;94031.75;5008789;28;20247;-69
2024/02/11 08:35:46;;;;;;;3.83;3.53;;;;;;;7.59;74.05;94029.06;5013685;28;20855;-68
2024/02/11 08:38:12;;;;;;;4.80;3.87;;;;;;;7.58;74.04;94033.44;5016812;28;20180;-66
2024/02/11 08:40:38;;;;;;;3.80;3.50;;;;;;;7.59;73.16;94029.06;5011274;28;20443;-67
2024/02/11 08:43:04;;;;;;;4.87;4.37;;;;;;;7.60;73.50;94035.94;5014172;28;20192;-67
2024/02/11 08:45:29;;;;;;;5.60;5.10;;;;;;;7.58;73.59;94035.19;5014924;28;20427;-68
2024/02/11 08:47:56;;;;;;;4.90;4.40;;;;;;;7.74;73.49;94035.78;5024047;28;20733;-68
2024/02/11 08:50:22;;;;;;;6.00;5.40;;;;;;;7.79;72.54;94035.47;5010097;28;20198;-67
2024/02/11 08:52:49;;;;;;;7.70;5.00;;;;;;;7.68;72.96;94036.25;5016674;28;20438;-68
2024/02/11 08:55:17;;;;;;;5.27;4.83;;;;;;;7.76;72.77;94030.47;5012677;28;20964;-69
2024/02/11 08:57:45;;;;;;;5.43;4.93;;;;;;;7.73;73.07;94031.53;5017602;28;20470;-69
2024/02/11 09:00:14;;;;;;;5.00;4.60;;;;;;;7.77;73.32;94034.75;5022046;28;20447;-69
2024/02/11 09:02:40;;;;;;;6.10;5.50;;;;;;;7.91;73.02;94033.75;5023687;28;20438;-68
2024/02/11 09:05:07;;;;;;;5.50;5.00;;;;;;;7.96;73.47;94042.09;5011203;28;20800;-66
2024/02/11 09:07:34;;;;;;;5.80;5.30;;;;;;;7.92;73.06;94041.50;5011748;28;20450;-67
2024/02/11 09:10:00;;;;;;;7.90;6.17;;;;;;;7.99;72.31;94041.91;5015732;28;20466;-69
2024/02/11 09:12:26;;;;;;;6.27;5.23;;;;;;;7.89;72.68;94046.09;5019147;28;20431;-67
2024/02/11 09:14:51;;;;;;;6.83;5.70;;;;;;;7.98;73.01;94046.25;5021421;28;20437;-70
2024/02/11 09:17:16;;;;;;;5.47;4.97;;;;;;;7.99;72.37;94057.56;5017198;28;20220;-69
2024/02/11 09:19:42;;;;;;;7.50;5.73;;;;;;;7.86;72.81;94052.38;5016176;28;20271;-67
2024/02/11 09:22:07;;;;;;;12.03;4.90;;;;;;;8.01;72.83;94051.28;5009287;28;20715;-68
2024/02/11 09:24:38;;;;;;;7.57;6.07;;;;;;;7.97;72.24;94054.22;5020453;28;20403;-67
2024/02/11 09:27:07;;;;;;;7.77;4.37;;;;;;;10.12;78.87;94053.75;5017988;28;20742;-68
2024/02/11 09:29:33;;;;;;;7.53;5.70;;;;;;;8.64;70.85;94056.34;5018209;28;20502;-67
2024/02/11 09:31:58;;;;;;;8.20;6.80;;;;;;;8.36;72.30;94058.38;5019926;28;20440;-68
2024/02/11 09:34:24;;;;;;;6.50;5.20;;;;;;;8.43;71.47;94061.38;5017093;28;21177;-68
2024/02/11 09:36:49;;;;;;;7.17;5.50;;;;;;;8.24;72.38;94062.72;5012563;28;20638;-70
2024/02/11 09:39:14;;;;;;;6.20;5.60;;;;;;;8.24;72.42;94067.94;5018365;28;20604;-70
2024/02/11 09:41:40;;;;;;;7.40;6.37;;;;;;;8.24;71.64;94069.69;5012658;28;20184;-70
2024/02/11 09:44:07;;;;;;;6.70;6.03;;;;;;;8.24;72.47;94070.53;5019117;28;20184;-69
2024/02/11 09:46:35;;;;;;;7.30;6.37;;;;;;;8.37;71.78;94072.25;5020831;28;20282;-69
2024/02/11 09:49:11;;;;;;;7.10;6.07;;;;;;;8.38;71.98;94084.38;5023532;28;20917;-70
2024/02/11 09:51:36;;;;;;;7.50;5.80;;;;;;;8.41;71.70;94073.72;5009645;28;20658;-70
2024/02/11 09:54:06;;;;;;;6.53;5.90;;;;;;;8.51;71.34;94073.91;5010815;28;20981;-70
2024/02/11 09:56:32;;;;;;;8.80;7.40;;;;;;;8.49;70.48;94074.00;5017210;28;20222;-70
2024/02/11 09:58:58;;;;;;;9.67;7.30;;;;;;;8.61;69.85;94072.28;5019202;28;20430;-70
2024/02/11 10:01:23;;;;;;;8.33;6.43;;;;;;;8.73;70.83;94075.78;5019976;28;20183;-70
2024/02/11 10:03:57;;;;;;;8.33;6.13;;;;;;;8.87;69.66;94083.44;5018291;28;20187;-69
2024/02/11 10:06:33;;;;;;;8.17;6.80;;;;;;;8.72;70.65;94085.41;5017593;28;20199;-69
2024/02/11 10:08:58;;;;;;;9.43;6.23;;;;;;;8.77;70.43;94088.50;5019156;28;20442;-68
2024/02/11 10:11:26;;;;;;;10.97;7.27;;;;;;;8.72;70.77;94093.25;5019705;28;20510;-70
2024/02/11 10:13:53;;;;;;;8.03;5.93;;;;;;;8.80;70.95;94098.72;5025692;28;20198;-70
2024/02/11 10:16:19;;;;;;;8.60;7.63;;;;;;;8.85;70.86;94088.75;5014639;28;20466;-70
2024/02/11 10:18:44;;;;;;;8.23;6.73;;;;;;;8.95;69.67;94098.53;5011614;28;20931;-70
2024/02/11 10:21:12;;;;;;;9.50;6.90;;;;;;;8.99;69.46;94102.59;5006900;28;20180;-70
2024/02/11 10:23:40;;;;;;;10.57;7.20;;;;;;;9.15;68.56;94095.28;5024611;28;20658;-70
2024/02/11 10:26:09;;;;;;;7.30;6.00;;;;;;;8.96;68.36;94108.91;5013510;28;20536;-71
2024/02/11 10:28:38;;;;;;;8.73;5.57;;;;;;;8.91;68.59;94113.66;5011121;28;20463;-71
2024/02/11 10:31:05;;;;;;;6.60;5.73;;;;;;;8.95;69.24;94115.06;5011991;28;20434;-70
2024/02/11 10:33:31;;;;;;;6.70;5.50;;;;;;;9.04;68.06;94109.16;5022697;28;20434;-70
2024/02/11 10:36:02;;;;;;;7.90;5.67;;;;;;;9.10;68.46;94113.94;5019688;28;20452;-69
2024/02/11 10:38:30;;;;;;;7.90;6.23;;;;;;;9.13;68.58;94115.50;5013532;28;20442;-69
2024/02/11 10:40:56;;;;;;;9.60;6.07;;;;;;;9.22;68.31;94111.34;5010146;28;20439;-68
2024/02/11 10:43:24;;;;;;;6.50;5.20;;;;;;;9.05;67.68;94120.47;5010115;28;20436;-68
2024/02/11 10:45:53;;;;;;;8.00;5.10;;;;;;;9.11;68.36;94123.44;5005625;28;20431;-69
2024/02/11 10:48:21;;;;;;;5.30;4.80;;;;;;;9.08;68.00;94121.06;5016095;28;20438;-72
2024/02/11 10:50:57;;;;;;;10.43;5.17;;;;;;;9.16;68.03;94120.47;5019963;28;20488;-70
2024/02/11 10:53:23;;;;;;;5.47;4.70;;;;;;;9.15;68.34;94123.25;5020275;28;21048;-70
2024/02/11 10:55:49;;;;;;;5.90;5.20;;;;;;;9.10;68.65;94127.03;5018324;28;20423;-71
2024/02/11 10:58:16;;;;;;;8.07;5.17;;;;;;;9.36;68.61;94120.78;5014877;28;20445;-70
2024/02/11 11:00:45;;;;;;;8.63;4.37;;;;;;;9.38;67.04;94121.47;5013840;28;20443;-69
2024/02/11 11:03:11;;;;;;;5.27;4.33;;;;;;;9.37;66.89;94119.81;5020912;28;20434;-70
2024/02/11 11:05:40;;;;;;;7.17;5.10;;;;;;;9.48;65.97;94118.06;5023806;28;20978;-70
2024/02/11 11:08:08;;;;;;;6.17;4.63;;;;;;;9.31;66.69;94116.72;5017329;28;20485;-71
2024/02/11 11:10:36;;;;;;;6.53;5.07;;;;;;;9.26;66.46;94123.25;5020539;28;20426;-69
2024/02/11 11:13:02;;;;;;;5.43;4.97;;;;;;;9.37;66.80;94118.03;5021363;28;20446;-70
2024/02/11 11:15:31;;;;;;;5.00;3.63;;;;;;;9.26;66.35;94126.72;5027282;28;20418;-72
2024/02/11 11:17:59;;;;;;;5.20;4.40;;;;;;;9.20;66.46;94124.53;5030112;28;20467;-69
2024/02/11 11:20:26;;;;;;;9.03;4.57;;;;;;;9.21;66.92;94120.13;5031330;28;20430;-70
2024/02/11 11:22:54;;;;;;;5.53;5.03;;;;;;;9.28;66.24;94116.13;5011773;28;20435;-69
2024/02/11 11:25:23;;;;;;;4.43;4.03;;;;;;;9.15;66.65;94118.84;5013742;28;20453;-71
2024/02/11 11:27:48;;;;;;;7.50;4.10;;;;;;;9.18;66.56;94115.97;5012403;28;20844;-71
2024/02/11 11:30:14;;;;;;;7.43;4.90;;;;;;;9.23;66.64;94120.88;5014711;28;20438;-69
2024/02/11 11:32:48;;;;;;;5.00;4.50;;;;;;;9.25;67.59;94113.72;5023462;28;20172;-69
2024/02/11 11:35:14;;;;;;;8.33;4.63;;;;;;;9.22;66.90;94120.03;5026541;28;20179;-71